sensor_id;sensor_type;location;lat;lon;timestamp;P1;durP1;ratioP1;P2;durP2;ratioP2
55063;SDS011;40963;52.168;21.296;2022-09-17T00:01:00;8.73;;;5.38;;
55063;SDS011;40963;52.168;21.296;2022-09-17T00:03:27;7.45;;;4.60;;
55063;SDS011;40963;52.168;21.296;2022-09-17T00:06:00;11.20;;;5.38;;
55063;SDS011;40963;52.168;21.296;2022-09-17T00:08:28;11.00;;;4.97;;
55063;SDS011;40963;52.168;21.296;2022-09-17T00:10:54;8.73;;;4.63;;
55063;SDS011;40963;52.168;21.296;2022-09-17T00:13:19;8.57;;;5.30;;
55063;SDS011;40963;52.168;21.296;2022-09-17T00:15:45;8.27;;;4.72;;
55063;SDS011;40963;52.168;21.296;2022-09-17T00:18:12;8.00;;;4.82;;
55063;SDS011;40963;52.168;21.296;2022-09-17T00:20:39;6.40;;;4.82;;
55063;SDS011;40963;52.168;21.296;2022-09-17T00:23:07;12.00;;;5.05;;
55063;SDS011;40963;52.168;21.296;2022-09-17T00:25:36;9.93;;;4.82;;
55063;SDS011;40963;52.168;21.296;2022-09-17T00:28:02;7.38;;;4.30;;
55063;SDS011;40963;52.168;21.296;2022-09-17T00:30:28;7.53;;;5.00;;
55063;SDS011;40963;52.168;21.296;2022-09-17T00:32:54;8.68;;;4.50;;
55063;SDS011;40963;52.168;21.296;2022-09-17T00:35:22;7.60;;;5.20;;
55063;SDS011;40963;52.168;21.296;2022-09-17T00:37:52;6.13;;;4.20;;
55063;SDS011;40963;52.168;21.296;2022-09-17T00:40:18;7.03;;;4.32;;
55063;SDS011;40963;52.168;21.296;2022-09-17T00:42:44;9.98;;;4.25;;
55063;SDS011;40963;52.168;21.296;2022-09-17T00:45:11;8.75;;;4.88;;
55063;SDS011;40963;52.168;21.296;2022-09-17T00:47:41;5.97;;;4.22;;
55063;SDS011;40963;52.168;21.296;2022-09-17T00:50:22;7.32;;;4.25;;
55063;SDS011;40963;52.168;21.296;2022-09-17T00:52:54;10.23;;;4.95;;
55063;SDS011;40963;52.168;21.296;2022-09-17T00:55:30;4.95;;;4.05;;
55063;SDS011;40963;52.168;21.296;2022-09-17T00:58:02;8.05;;;4.88;;
55063;SDS011;40963;52.168;21.296;2022-09-17T01:00:32;8.82;;;4.18;;
55063;SDS011;40963;52.168;21.296;2022-09-17T01:02:58;6.85;;;4.47;;
55063;SDS011;40963;52.168;21.296;2022-09-17T01:05:29;6.70;;;3.90;;
55063;SDS011;40963;52.168;21.296;2022-09-17T01:08:15;12.25;;;4.05;;
55063;SDS011;40963;52.168;21.296;2022-09-17T01:15:55;5.00;;;3.92;;
55063;SDS011;40963;52.168;21.296;2022-09-17T01:27:47;6.60;;;4.32;;
55063;SDS011;40963;52.168;21.296;2022-09-17T01:30:39;7.90;;;4.10;;
55063;SDS011;40963;52.168;21.296;2022-09-17T01:33:32;6.05;;;4.15;;
55063;SDS011;40963;52.168;21.296;2022-09-17T01:41:40;7.18;;;4.10;;
55063;SDS011;40963;52.168;21.296;2022-09-17T01:44:14;6.70;;;4.30;;
55063;SDS011;40963;52.168;21.296;2022-09-17T01:46:50;6.30;;;4.32;;
55063;SDS011;40963;52.168;21.296;2022-09-17T01:49:29;7.10;;;4.13;;
55063;SDS011;40963;52.168;21.296;2022-09-17T01:51:57;7.70;;;4.45;;
55063;SDS011;40963;52.168;21.296;2022-09-17T01:54:30;6.40;;;4.50;;
55063;SDS011;40963;52.168;21.296;2022-09-17T01:57:08;12.40;;;4.40;;
55063;SDS011;40963;52.168;21.296;2022-09-17T01:59:44;6.57;;;4.20;;
55063;SDS011;40963;52.168;21.296;2022-09-17T02:02:17;10.80;;;4.55;;
55063;SDS011;40963;52.168;21.296;2022-09-17T02:05:03;6.50;;;4.10;;
55063;SDS011;40963;52.168;21.296;2022-09-17T02:07:33;8.73;;;3.90;;
55063;SDS011;40963;52.168;21.296;2022-09-17T02:10:07;6.25;;;4.35;;
55063;SDS011;40963;52.168;21.296;2022-09-17T02:12:39;5.07;;;4.20;;
55063;SDS011;40963;52.168;21.296;2022-09-17T02:15:14;6.80;;;4.57;;
55063;SDS011;40963;52.168;21.296;2022-09-17T02:17:47;6.82;;;3.80;;
55063;SDS011;40963;52.168;21.296;2022-09-17T02:20:18;10.98;;;4.28;;
55063;SDS011;40963;52.168;21.296;2022-09-17T02:22:58;5.05;;;3.80;;
55063;SDS011;40963;52.168;21.296;2022-09-17T02:25:37;6.30;;;3.85;;
55063;SDS011;40963;52.168;21.296;2022-09-17T02:28:22;5.60;;;4.07;;
55063;SDS011;40963;52.168;21.296;2022-09-17T02:31:03;6.65;;;4.10;;
55063;SDS011;40963;52.168;21.296;2022-09-17T02:33:29;7.45;;;4.53;;
55063;SDS011;40963;52.168;21.296;2022-09-17T02:35:57;9.68;;;3.90;;
55063;SDS011;40963;52.168;21.296;2022-09-17T02:38:23;10.63;;;4.72;;
55063;SDS011;40963;52.168;21.296;2022-09-17T02:40:52;6.32;;;4.28;;
55063;SDS011;40963;52.168;21.296;2022-09-17T02:46:03;10.18;;;4.22;;
55063;SDS011;40963;52.168;21.296;2022-09-17T02:57:57;5.63;;;4.22;;
55063;SDS011;40963;52.168;21.296;2022-09-17T03:00:31;7.65;;;4.32;;
55063;SDS011;40963;52.168;21.296;2022-09-17T03:05:33;10.18;;;4.93;;
55063;SDS011;40963;52.168;21.296;2022-09-17T03:08:01;9.55;;;4.15;;
55063;SDS011;40963;52.168;21.296;2022-09-17T03:10:28;7.07;;;3.97;;
55063;SDS011;40963;52.168;21.296;2022-09-17T03:12:57;5.18;;;4.00;;
55063;SDS011;40963;52.168;21.296;2022-09-17T03:15:23;7.65;;;4.65;;
55063;SDS011;40963;52.168;21.296;2022-09-17T03:17:50;8.68;;;4.43;;
55063;SDS011;40963;52.168;21.296;2022-09-17T03:20:15;6.10;;;4.25;;
55063;SDS011;40963;52.168;21.296;2022-09-17T03:22:42;8.50;;;4.72;;
55063;SDS011;40963;52.168;21.296;2022-09-17T03:25:08;4.90;;;3.80;;
55063;SDS011;40963;52.168;21.296;2022-09-17T03:27:35;11.85;;;4.90;;
55063;SDS011;40963;52.168;21.296;2022-09-17T03:30:01;5.40;;;4.25;;
55063;SDS011;40963;52.168;21.296;2022-09-17T03:32:27;6.88;;;4.20;;
55063;SDS011;40963;52.168;21.296;2022-09-17T03:34:53;5.97;;;4.38;;
55063;SDS011;40963;52.168;21.296;2022-09-17T03:37:19;5.47;;;4.45;;
55063;SDS011;40963;52.168;21.296;2022-09-17T03:39:46;7.05;;;4.38;;
55063;SDS011;40963;52.168;21.296;2022-09-17T03:42:12;8.70;;;4.15;;
55063;SDS011;40963;52.168;21.296;2022-09-17T03:44:38;7.55;;;4.80;;
55063;SDS011;40963;52.168;21.296;2022-09-17T03:47:03;7.05;;;4.22;;
55063;SDS011;40963;52.168;21.296;2022-09-17T03:49:29;9.32;;;4.78;;
55063;SDS011;40963;52.168;21.296;2022-09-17T03:51:55;6.90;;;4.07;;
55063;SDS011;40963;52.168;21.296;2022-09-17T03:54:22;9.05;;;4.30;;
55063;SDS011;40963;52.168;21.296;2022-09-17T03:56:48;8.02;;;4.70;;
55063;SDS011;40963;52.168;21.296;2022-09-17T03:59:13;6.22;;;4.10;;
55063;SDS011;40963;52.168;21.296;2022-09-17T04:01:40;8.70;;;4.90;;
55063;SDS011;40963;52.168;21.296;2022-09-17T04:04:05;6.75;;;4.32;;
55063;SDS011;40963;52.168;21.296;2022-09-17T04:06:32;5.82;;;4.47;;
55063;SDS011;40963;52.168;21.296;2022-09-17T04:08:58;5.65;;;4.40;;
55063;SDS011;40963;52.168;21.296;2022-09-17T04:11:25;6.30;;;4.13;;
55063;SDS011;40963;52.168;21.296;2022-09-17T04:13:51;13.88;;;4.25;;
55063;SDS011;40963;52.168;21.296;2022-09-17T04:16:17;5.45;;;3.97;;
55063;SDS011;40963;52.168;21.296;2022-09-17T04:18:43;6.85;;;4.50;;
55063;SDS011;40963;52.168;21.296;2022-09-17T04:21:09;9.27;;;3.90;;
55063;SDS011;40963;52.168;21.296;2022-09-17T04:23:35;5.68;;;4.18;;
55063;SDS011;40963;52.168;21.296;2022-09-17T04:26:01;8.50;;;4.28;;
55063;SDS011;40963;52.168;21.296;2022-09-17T04:28:27;5.28;;;3.88;;
55063;SDS011;40963;52.168;21.296;2022-09-17T04:30:53;8.60;;;4.30;;
55063;SDS011;40963;52.168;21.296;2022-09-17T04:33:19;5.50;;;4.45;;
55063;SDS011;40963;52.168;21.296;2022-09-17T04:35:45;13.57;;;4.82;;
55063;SDS011;40963;52.168;21.296;2022-09-17T04:38:11;11.82;;;4.35;;
55063;SDS011;40963;52.168;21.296;2022-09-17T04:40:42;18.17;;;5.20;;
55063;SDS011;40963;52.168;21.296;2022-09-17T04:43:08;6.20;;;3.97;;
55063;SDS011;40963;52.168;21.296;2022-09-17T04:45:35;6.05;;;4.22;;
55063;SDS011;40963;52.168;21.296;2022-09-17T04:48:01;6.93;;;4.38;;
55063;SDS011;40963;52.168;21.296;2022-09-17T04:50:27;10.13;;;4.43;;
55063;SDS011;40963;52.168;21.296;2022-09-17T04:52:53;6.63;;;4.45;;
55063;SDS011;40963;52.168;21.296;2022-09-17T04:55:19;9.07;;;4.25;;
55063;SDS011;40963;52.168;21.296;2022-09-17T04:57:46;7.85;;;4.28;;
55063;SDS011;40963;52.168;21.296;2022-09-17T05:00:17;7.18;;;4.20;;
55063;SDS011;40963;52.168;21.296;2022-09-17T05:02:45;7.18;;;4.32;;
55063;SDS011;40963;52.168;21.296;2022-09-17T05:05:12;7.72;;;4.35;;
55063;SDS011;40963;52.168;21.296;2022-09-17T05:07:39;10.35;;;4.50;;
55063;SDS011;40963;52.168;21.296;2022-09-17T05:10:05;9.45;;;3.97;;
55063;SDS011;40963;52.168;21.296;2022-09-17T05:12:31;9.13;;;3.92;;
55063;SDS011;40963;52.168;21.296;2022-09-17T05:14:57;6.30;;;4.10;;
55063;SDS011;40963;52.168;21.296;2022-09-17T05:17:23;5.28;;;4.43;;
55063;SDS011;40963;52.168;21.296;2022-09-17T05:19:49;7.10;;;4.20;;
55063;SDS011;40963;52.168;21.296;2022-09-17T05:22:15;8.52;;;4.22;;
55063;SDS011;40963;52.168;21.296;2022-09-17T05:24:43;5.63;;;3.92;;
55063;SDS011;40963;52.168;21.296;2022-09-17T05:27:09;8.43;;;4.72;;
55063;SDS011;40963;52.168;21.296;2022-09-17T05:29:35;9.70;;;4.78;;
55063;SDS011;40963;52.168;21.296;2022-09-17T05:32:01;7.57;;;4.20;;
55063;SDS011;40963;52.168;21.296;2022-09-17T05:34:28;5.68;;;4.40;;
55063;SDS011;40963;52.168;21.296;2022-09-17T05:36:54;8.95;;;5.10;;
55063;SDS011;40963;52.168;21.296;2022-09-17T05:39:20;5.78;;;4.50;;
55063;SDS011;40963;52.168;21.296;2022-09-17T05:41:49;6.70;;;4.50;;
55063;SDS011;40963;52.168;21.296;2022-09-17T05:44:19;8.20;;;4.88;;
55063;SDS011;40963;52.168;21.296;2022-09-17T05:46:46;6.15;;;4.43;;
55063;SDS011;40963;52.168;21.296;2022-09-17T05:49:12;8.25;;;4.35;;
55063;SDS011;40963;52.168;21.296;2022-09-17T05:51:40;5.22;;;3.78;;
55063;SDS011;40963;52.168;21.296;2022-09-17T05:54:06;10.32;;;3.83;;
55063;SDS011;40963;52.168;21.296;2022-09-17T05:56:33;6.68;;;3.80;;
55063;SDS011;40963;52.168;21.296;2022-09-17T05:58:59;7.93;;;3.70;;
55063;SDS011;40963;52.168;21.296;2022-09-17T06:01:25;3.88;;;2.65;;
55063;SDS011;40963;52.168;21.296;2022-09-17T06:03:51;5.53;;;3.08;;
55063;SDS011;40963;52.168;21.296;2022-09-17T06:06:17;5.43;;;3.17;;
55063;SDS011;40963;52.168;21.296;2022-09-17T06:08:43;3.22;;;2.25;;
55063;SDS011;40963;52.168;21.296;2022-09-17T06:11:09;5.70;;;3.05;;
55063;SDS011;40963;52.168;21.296;2022-09-17T06:13:35;4.65;;;2.42;;
55063;SDS011;40963;52.168;21.296;2022-09-17T06:16:01;5.45;;;3.03;;
55063;SDS011;40963;52.168;21.296;2022-09-17T06:18:28;5.35;;;3.17;;
55063;SDS011;40963;52.168;21.296;2022-09-17T06:20:59;9.07;;;3.33;;
55063;SDS011;40963;52.168;21.296;2022-09-17T06:23:26;3.13;;;2.65;;
55063;SDS011;40963;52.168;21.296;2022-09-17T06:25:56;4.80;;;3.22;;
55063;SDS011;40963;52.168;21.296;2022-09-17T06:28:23;7.47;;;3.42;;
55063;SDS011;40963;52.168;21.296;2022-09-17T06:30:50;6.78;;;3.22;;
55063;SDS011;40963;52.168;21.296;2022-09-17T06:33:18;1.45;;;1.30;;
55063;SDS011;40963;52.168;21.296;2022-09-17T06:35:45;7.53;;;2.60;;
55063;SDS011;40963;52.168;21.296;2022-09-17T06:38:11;7.60;;;2.70;;
55063;SDS011;40963;52.168;21.296;2022-09-17T06:40:37;5.35;;;2.45;;
55063;SDS011;40963;52.168;21.296;2022-09-17T06:43:03;3.35;;;2.33;;
55063;SDS011;40963;52.168;21.296;2022-09-17T06:45:29;5.00;;;2.60;;
55063;SDS011;40963;52.168;21.296;2022-09-17T06:47:54;3.90;;;1.80;;
55063;SDS011;40963;52.168;21.296;2022-09-17T06:50:20;3.30;;;1.92;;
55063;SDS011;40963;52.168;21.296;2022-09-17T06:52:47;5.57;;;1.92;;
55063;SDS011;40963;52.168;21.296;2022-09-17T06:55:13;5.03;;;1.90;;
55063;SDS011;40963;52.168;21.296;2022-09-17T06:57:40;5.20;;;2.15;;
55063;SDS011;40963;52.168;21.296;2022-09-17T07:00:06;14.23;;;2.13;;
55063;SDS011;40963;52.168;21.296;2022-09-17T07:02:33;5.63;;;1.65;;
55063;SDS011;40963;52.168;21.296;2022-09-17T07:04:59;5.22;;;1.70;;
55063;SDS011;40963;52.168;21.296;2022-09-17T07:07:25;4.50;;;1.58;;
55063;SDS011;40963;52.168;21.296;2022-09-17T07:09:51;2.20;;;1.15;;
55063;SDS011;40963;52.168;21.296;2022-09-17T07:12:20;3.92;;;1.60;;
55063;SDS011;40963;52.168;21.296;2022-09-17T07:14:46;3.03;;;1.45;;
55063;SDS011;40963;52.168;21.296;2022-09-17T07:17:12;4.72;;;1.70;;
55063;SDS011;40963;52.168;21.296;2022-09-17T07:19:39;8.60;;;1.65;;
55063;SDS011;40963;52.168;21.296;2022-09-17T07:22:04;4.40;;;1.63;;
55063;SDS011;40963;52.168;21.296;2022-09-17T07:24:31;2.05;;;1.50;;
55063;SDS011;40963;52.168;21.296;2022-09-17T07:26:57;2.65;;;1.65;;
55063;SDS011;40963;52.168;21.296;2022-09-17T07:29:23;3.13;;;1.40;;
55063;SDS011;40963;52.168;21.296;2022-09-17T07:31:52;6.55;;;1.95;;
55063;SDS011;40963;52.168;21.296;2022-09-17T07:34:19;5.25;;;1.90;;
55063;SDS011;40963;52.168;21.296;2022-09-17T07:36:45;2.72;;;1.70;;
55063;SDS011;40963;52.168;21.296;2022-09-17T07:39:10;1.48;;;1.02;;
55063;SDS011;40963;52.168;21.296;2022-09-17T07:41:37;5.97;;;1.55;;
55063;SDS011;40963;52.168;21.296;2022-09-17T07:44:04;1.88;;;1.35;;
55063;SDS011;40963;52.168;21.296;2022-09-17T07:46:33;5.00;;;1.52;;
55063;SDS011;40963;52.168;21.296;2022-09-17T07:48:59;2.30;;;1.40;;
55063;SDS011;40963;52.168;21.296;2022-09-17T07:51:26;3.22;;;1.90;;
55063;SDS011;40963;52.168;21.296;2022-09-17T07:53:56;2.70;;;1.38;;
55063;SDS011;40963;52.168;21.296;2022-09-17T07:56:23;3.75;;;1.75;;
55063;SDS011;40963;52.168;21.296;2022-09-17T07:58:51;3.03;;;1.27;;
55063;SDS011;40963;52.168;21.296;2022-09-17T08:01:17;2.83;;;1.90;;
55063;SDS011;40963;52.168;21.296;2022-09-17T08:03:47;19.00;;;2.20;;
55063;SDS011;40963;52.168;21.296;2022-09-17T08:06:15;5.65;;;1.70;;
55063;SDS011;40963;52.168;21.296;2022-09-17T08:08:43;2.90;;;1.40;;
55063;SDS011;40963;52.168;21.296;2022-09-17T08:11:16;5.45;;;1.90;;
55063;SDS011;40963;52.168;21.296;2022-09-17T08:13:46;3.78;;;1.80;;
55063;SDS011;40963;52.168;21.296;2022-09-17T08:16:13;6.65;;;1.83;;
55063;SDS011;40963;52.168;21.296;2022-09-17T08:18:40;2.33;;;1.42;;
55063;SDS011;40963;52.168;21.296;2022-09-17T08:21:08;2.75;;;1.88;;
55063;SDS011;40963;52.168;21.296;2022-09-17T08:23:36;2.38;;;1.40;;
55063;SDS011;40963;52.168;21.296;2022-09-17T08:26:03;2.95;;;1.60;;
55063;SDS011;40963;52.168;21.296;2022-09-17T08:28:32;3.17;;;2.17;;
55063;SDS011;40963;52.168;21.296;2022-09-17T08:30:59;4.38;;;1.50;;
55063;SDS011;40963;52.168;21.296;2022-09-17T08:33:29;4.07;;;2.10;;
55063;SDS011;40963;52.168;21.296;2022-09-17T08:35:56;2.63;;;1.90;;
55063;SDS011;40963;52.168;21.296;2022-09-17T08:38:25;1.95;;;1.70;;
55063;SDS011;40963;52.168;21.296;2022-09-17T08:46:22;4.25;;;1.95;;
55063;SDS011;40963;52.168;21.296;2022-09-17T08:49:12;7.47;;;2.65;;
55063;SDS011;40963;52.168;21.296;2022-09-17T09:00:15;3.13;;;1.90;;
55063;SDS011;40963;52.168;21.296;2022-09-17T09:03:01;2.33;;;1.55;;
55063;SDS011;40963;52.168;21.296;2022-09-17T09:05:48;2.65;;;1.70;;
55063;SDS011;40963;52.168;21.296;2022-09-17T09:08:27;3.45;;;1.98;;
55063;SDS011;40963;52.168;21.296;2022-09-17T09:11:22;4.22;;;2.10;;
55063;SDS011;40963;52.168;21.296;2022-09-17T09:13:59;4.07;;;1.70;;
55063;SDS011;40963;52.168;21.296;2022-09-17T09:16:36;6.88;;;1.80;;
55063;SDS011;40963;52.168;21.296;2022-09-17T09:19:19;2.58;;;1.70;;
55063;SDS011;40963;52.168;21.296;2022-09-17T09:22:01;6.93;;;1.83;;
55063;SDS011;40963;52.168;21.296;2022-09-17T09:25:16;3.22;;;2.22;;
55063;SDS011;40963;52.168;21.296;2022-09-17T09:27:18;2.40;;;2.00;;
55063;SDS011;40963;52.168;21.296;2022-09-17T09:30:06;3.55;;;1.88;;
55063;SDS011;40963;52.168;21.296;2022-09-17T09:35:42;13.38;;;4.18;;
55063;SDS011;40963;52.168;21.296;2022-09-17T09:40:54;14.45;;;5.00;;
55063;SDS011;40963;52.168;21.296;2022-09-17T09:52:02;2.85;;;2.13;;
55063;SDS011;40963;52.168;21.296;2022-09-17T09:57:19;6.78;;;2.75;;
55063;SDS011;40963;52.168;21.296;2022-09-17T10:02:47;4.25;;;2.00;;
55063;SDS011;40963;52.168;21.296;2022-09-17T10:05:16;5.25;;;1.90;;
55063;SDS011;40963;52.168;21.296;2022-09-17T10:07:42;2.28;;;2.00;;
55063;SDS011;40963;52.168;21.296;2022-09-17T10:10:09;5.53;;;2.30;;
55063;SDS011;40963;52.168;21.296;2022-09-17T10:12:35;1.65;;;1.55;;
55063;SDS011;40963;52.168;21.296;2022-09-17T10:15:20;11.40;;;4.55;;
55063;SDS011;40963;52.168;21.296;2022-09-17T10:20:56;1.80;;;1.70;;
55063;SDS011;40963;52.168;21.296;2022-09-17T10:23:24;4.95;;;2.47;;
55063;SDS011;40963;52.168;21.296;2022-09-17T10:25:52;4.68;;;2.50;;
55063;SDS011;40963;52.168;21.296;2022-09-17T10:28:33;156.35;;;62.65;;
55063;SDS011;40963;52.168;21.296;2022-09-17T10:31:05;56.33;;;26.67;;
55063;SDS011;40963;52.168;21.296;2022-09-17T10:33:35;6.70;;;4.10;;
55063;SDS011;40963;52.168;21.296;2022-09-17T10:38:40;40.53;;;11.90;;
55063;SDS011;40963;52.168;21.296;2022-09-17T10:43:47;23.23;;;5.50;;
55063;SDS011;40963;52.168;21.296;2022-09-17T10:46:18;5.47;;;2.85;;
55063;SDS011;40963;52.168;21.296;2022-09-17T10:48:56;16.33;;;5.25;;
55063;SDS011;40963;52.168;21.296;2022-09-17T10:51:34;34.40;;;9.20;;
55063;SDS011;40963;52.168;21.296;2022-09-17T10:54:18;6.03;;;2.65;;
55063;SDS011;40963;52.168;21.296;2022-09-17T10:57:05;2.50;;;1.50;;
55063;SDS011;40963;52.168;21.296;2022-09-17T10:59:42;4.88;;;2.47;;
55063;SDS011;40963;52.168;21.296;2022-09-17T11:05:27;10.30;;;3.30;;
55063;SDS011;40963;52.168;21.296;2022-09-17T11:24:56;11.18;;;4.20;;
55063;SDS011;40963;52.168;21.296;2022-09-17T11:35:50;4.55;;;1.95;;
55063;SDS011;40963;52.168;21.296;2022-09-17T11:41:15;3.75;;;2.80;;
55063;SDS011;40963;52.168;21.296;2022-09-17T11:44:02;3.77;;;2.00;;
55063;SDS011;40963;52.168;21.296;2022-09-17T11:46:44;6.53;;;2.08;;
55063;SDS011;40963;52.168;21.296;2022-09-17T11:49:26;2.22;;;1.80;;
55063;SDS011;40963;52.168;21.296;2022-09-17T11:52:08;2.03;;;1.77;;
55063;SDS011;40963;52.168;21.296;2022-09-17T11:54:53;1.70;;;1.60;;
55063;SDS011;40963;52.168;21.296;2022-09-17T11:57:31;5.65;;;1.73;;
55063;SDS011;40963;52.168;21.296;2022-09-17T12:05:42;3.67;;;2.28;;
55063;SDS011;40963;52.168;21.296;2022-09-17T12:11:20;2.42;;;2.22;;
55063;SDS011;40963;52.168;21.296;2022-09-17T12:13:53;3.90;;;2.50;;
55063;SDS011;40963;52.168;21.296;2022-09-17T12:16:38;4.75;;;2.85;;
55063;SDS011;40963;52.168;21.296;2022-09-17T12:21:54;2.67;;;2.47;;
55063;SDS011;40963;52.168;21.296;2022-09-17T12:24:28;3.42;;;3.13;;
55063;SDS011;40963;52.168;21.296;2022-09-17T12:45:48;2.38;;;1.80;;
55063;SDS011;40963;52.168;21.296;2022-09-17T12:53:35;1.60;;;1.50;;
55063;SDS011;40963;52.168;21.296;2022-09-17T12:56:25;1.70;;;1.60;;
55063;SDS011;40963;52.168;21.296;2022-09-17T12:59:15;1.45;;;1.30;;
55063;SDS011;40963;52.168;21.296;2022-09-17T13:07:20;2.28;;;1.40;;
55063;SDS011;40963;52.168;21.296;2022-09-17T13:21:16;8.68;;;3.55;;
55063;SDS011;40963;52.168;21.296;2022-09-17T13:23:49;15.75;;;4.25;;
55063;SDS011;40963;52.168;21.296;2022-09-17T13:26:17;9.50;;;3.75;;
55063;SDS011;40963;52.168;21.296;2022-09-17T13:28:48;7.57;;;2.80;;
55063;SDS011;40963;52.168;21.296;2022-09-17T13:36:52;7.22;;;4.30;;
55063;SDS011;40963;52.168;21.296;2022-09-17T13:42:15;14.35;;;5.70;;
55063;SDS011;40963;52.168;21.296;2022-09-17T13:45:17;1.92;;;1.80;;
55063;SDS011;40963;52.168;21.296;2022-09-17T13:55:46;10.52;;;4.28;;
55063;SDS011;40963;52.168;21.296;2022-09-17T14:00:52;4.88;;;3.42;;
55063;SDS011;40963;52.168;21.296;2022-09-17T14:11:02;4.95;;;1.80;;
55063;SDS011;40963;52.168;21.296;2022-09-17T14:13:51;25.65;;;10.15;;
55063;SDS011;40963;52.168;21.296;2022-09-17T14:16:44;11.38;;;4.03;;
55063;SDS011;40963;52.168;21.296;2022-09-17T14:24:34;14.57;;;6.32;;
55063;SDS011;40963;52.168;21.296;2022-09-17T14:32:27;9.38;;;4.55;;
55063;SDS011;40963;52.168;21.296;2022-09-17T14:35:01;8.85;;;5.05;;
55063;SDS011;40963;52.168;21.296;2022-09-17T14:37:38;6.22;;;3.83;;
55063;SDS011;40963;52.168;21.296;2022-09-17T14:40:07;20.55;;;6.65;;
55063;SDS011;40963;52.168;21.296;2022-09-17T14:42:35;72.88;;;15.40;;
55063;SDS011;40963;52.168;21.296;2022-09-17T14:45:04;67.50;;;33.22;;
55063;SDS011;40963;52.168;21.296;2022-09-17T14:47:38;16.05;;;8.95;;
55063;SDS011;40963;52.168;21.296;2022-09-17T14:50:20;13.40;;;6.72;;
55063;SDS011;40963;52.168;21.296;2022-09-17T14:52:48;99.22;;;27.55;;
55063;SDS011;40963;52.168;21.296;2022-09-17T14:55:25;46.13;;;11.77;;
55063;SDS011;40963;52.168;21.296;2022-09-17T14:57:56;28.60;;;8.45;;
55063;SDS011;40963;52.168;21.296;2022-09-17T15:00:25;99.53;;;21.40;;
55063;SDS011;40963;52.168;21.296;2022-09-17T15:02:58;97.88;;;21.73;;
55063;SDS011;40963;52.168;21.296;2022-09-17T15:05:36;17.85;;;5.55;;
55063;SDS011;40963;52.168;21.296;2022-09-17T15:08:11;14.43;;;5.35;;
55063;SDS011;40963;52.168;21.296;2022-09-17T15:14:04;18.25;;;6.97;;
55063;SDS011;40963;52.168;21.296;2022-09-17T15:18:42;35.72;;;9.95;;
55063;SDS011;40963;52.168;21.296;2022-09-17T15:21:28;21.27;;;7.57;;
55063;SDS011;40963;52.168;21.296;2022-09-17T15:26:52;7.03;;;3.50;;
55063;SDS011;40963;52.168;21.296;2022-09-17T15:29:22;9.00;;;5.38;;
55063;SDS011;40963;52.168;21.296;2022-09-17T15:31:52;11.57;;;4.40;;
55063;SDS011;40963;52.168;21.296;2022-09-17T15:34:18;14.85;;;6.05;;
55063;SDS011;40963;52.168;21.296;2022-09-17T15:39:45;6.38;;;3.85;;
55063;SDS011;40963;52.168;21.296;2022-09-17T15:42:19;5.30;;;3.63;;
55063;SDS011;40963;52.168;21.296;2022-09-17T15:44:50;7.87;;;4.43;;
55063;SDS011;40963;52.168;21.296;2022-09-17T15:52:42;6.75;;;3.95;;
55063;SDS011;40963;52.168;21.296;2022-09-17T15:57:55;9.38;;;4.40;;
55063;SDS011;40963;52.168;21.296;2022-09-17T16:00:22;7.65;;;4.80;;
55063;SDS011;40963;52.168;21.296;2022-09-17T16:02:48;9.07;;;5.03;;
55063;SDS011;40963;52.168;21.296;2022-09-17T16:07:45;17.10;;;6.47;;
55063;SDS011;40963;52.168;21.296;2022-09-17T16:10:12;12.63;;;7.32;;
55063;SDS011;40963;52.168;21.296;2022-09-17T16:12:42;28.42;;;12.80;;
55063;SDS011;40963;52.168;21.296;2022-09-17T16:15:08;31.17;;;12.95;;
55063;SDS011;40963;52.168;21.296;2022-09-17T16:17:44;22.55;;;11.10;;
55063;SDS011;40963;52.168;21.296;2022-09-17T16:22:46;26.77;;;9.63;;
55063;SDS011;40963;52.168;21.296;2022-09-17T16:25:12;113.28;;;34.38;;
55063;SDS011;40963;52.168;21.296;2022-09-17T16:27:43;34.50;;;12.20;;
55063;SDS011;40963;52.168;21.296;2022-09-17T16:30:13;13.07;;;7.35;;
55063;SDS011;40963;52.168;21.296;2022-09-17T16:32:41;11.10;;;6.65;;
55063;SDS011;40963;52.168;21.296;2022-09-17T16:35:10;9.90;;;6.32;;
55063;SDS011;40963;52.168;21.296;2022-09-17T16:37:39;12.57;;;6.35;;
55063;SDS011;40963;52.168;21.296;2022-09-17T16:40:05;9.80;;;5.97;;
55063;SDS011;40963;52.168;21.296;2022-09-17T16:42:33;15.75;;;7.50;;
55063;SDS011;40963;52.168;21.296;2022-09-17T16:44:59;12.90;;;6.72;;
55063;SDS011;40963;52.168;21.296;2022-09-17T16:47:27;14.98;;;6.72;;
55063;SDS011;40963;52.168;21.296;2022-09-17T16:49:55;17.30;;;7.38;;
55063;SDS011;40963;52.168;21.296;2022-09-17T16:52:21;16.25;;;7.25;;
55063;SDS011;40963;52.168;21.296;2022-09-17T16:54:47;13.57;;;7.55;;
55063;SDS011;40963;52.168;21.296;2022-09-17T16:57:13;17.33;;;9.68;;
55063;SDS011;40963;52.168;21.296;2022-09-17T16:59:38;23.52;;;9.75;;
55063;SDS011;40963;52.168;21.296;2022-09-17T17:02:04;21.20;;;9.40;;
55063;SDS011;40963;52.168;21.296;2022-09-17T17:04:31;15.75;;;8.68;;
55063;SDS011;40963;52.168;21.296;2022-09-17T17:06:56;16.70;;;8.95;;
55063;SDS011;40963;52.168;21.296;2022-09-17T17:09:22;18.30;;;9.23;;
55063;SDS011;40963;52.168;21.296;2022-09-17T17:11:48;23.88;;;12.38;;
55063;SDS011;40963;52.168;21.296;2022-09-17T17:14:15;29.77;;;13.52;;
55063;SDS011;40963;52.168;21.296;2022-09-17T17:16:41;28.23;;;12.93;;
55063;SDS011;40963;52.168;21.296;2022-09-17T17:19:08;32.92;;;14.68;;
55063;SDS011;40963;52.168;21.296;2022-09-17T17:21:34;48.17;;;19.25;;
55063;SDS011;40963;52.168;21.296;2022-09-17T17:24:00;48.25;;;20.20;;
55063;SDS011;40963;52.168;21.296;2022-09-17T17:26:27;60.08;;;24.73;;
55063;SDS011;40963;52.168;21.296;2022-09-17T17:28:53;66.63;;;27.38;;
55063;SDS011;40963;52.168;21.296;2022-09-17T17:31:18;58.95;;;24.75;;
55063;SDS011;40963;52.168;21.296;2022-09-17T17:33:44;58.70;;;24.80;;
55063;SDS011;40963;52.168;21.296;2022-09-17T17:36:10;65.03;;;23.48;;
55063;SDS011;40963;52.168;21.296;2022-09-17T17:38:36;37.28;;;18.00;;
55063;SDS011;40963;52.168;21.296;2022-09-17T17:43:35;46.00;;;17.63;;
55063;SDS011;40963;52.168;21.296;2022-09-17T17:46:01;37.88;;;16.15;;
55063;SDS011;40963;52.168;21.296;2022-09-17T17:48:30;29.75;;;15.63;;
55063;SDS011;40963;52.168;21.296;2022-09-17T17:51:02;35.45;;;16.52;;
55063;SDS011;40963;52.168;21.296;2022-09-17T17:53:33;40.75;;;17.05;;
55063;SDS011;40963;52.168;21.296;2022-09-17T17:56:00;38.67;;;15.52;;
55063;SDS011;40963;52.168;21.296;2022-09-17T17:58:29;31.17;;;15.45;;
55063;SDS011;40963;52.168;21.296;2022-09-17T18:00:55;25.73;;;13.60;;
55063;SDS011;40963;52.168;21.296;2022-09-17T18:03:22;30.25;;;13.25;;
55063;SDS011;40963;52.168;21.296;2022-09-17T18:05:51;26.38;;;13.35;;
55063;SDS011;40963;52.168;21.296;2022-09-17T18:08:20;31.95;;;14.63;;
55063;SDS011;40963;52.168;21.296;2022-09-17T18:10:53;35.47;;;16.77;;
55063;SDS011;40963;52.168;21.296;2022-09-17T18:13:21;50.17;;;21.63;;
55063;SDS011;40963;52.168;21.296;2022-09-17T18:15:57;45.50;;;21.60;;
55063;SDS011;40963;52.168;21.296;2022-09-17T18:18:29;57.00;;;25.90;;
55063;SDS011;40963;52.168;21.296;2022-09-17T18:21:07;59.08;;;26.52;;
55063;SDS011;40963;52.168;21.296;2022-09-17T18:23:36;48.28;;;24.85;;
55063;SDS011;40963;52.168;21.296;2022-09-17T18:26:04;39.85;;;20.90;;
55063;SDS011;40963;52.168;21.296;2022-09-17T18:28:33;38.80;;;20.67;;
55063;SDS011;40963;52.168;21.296;2022-09-17T18:31:03;38.55;;;20.45;;